Time;durP1;ratioP1;P1;durP2;ratioP2;P2;SDS_P1;SDS_P2;PMS_P1;PMS_P2;Temp;Humidity;BMP_temperature;BMP_pressure;BME280_temperature;BME280_humidity;BME280_pressure;Samples;Min_cycle;Max_cycle;Signal;HPM_P1;HPM_P2
2022/09/09 00:01:43;;;;;;;3.53;0.62;;;14.50;99.90;;;;;;7360210;32;20189;-58
2022/09/09 00:06:07;;;;;;;2.45;0.55;;;14.50;99.90;;;;;;7362922;32;20126;-58
2022/09/09 00:10:41;;;;;;;3.83;0.70;;;14.50;99.90;;;;;;7361086;32;20201;-58
2022/09/09 00:14:59;;;;;;;3.05;0.75;;;14.50;99.90;;;;;;7364048;32;20111;-58
2022/09/09 00:19:29;;;;;;;3.33;0.70;;;14.40;99.90;;;;;;7362696;32;20237;-58
2022/09/09 00:23:32;;;;;;;1.60;0.50;;;14.40;99.90;;;;;;7363730;32;20099;-58
2022/09/09 00:27:45;;;;;;;2.15;0.70;;;14.30;99.90;;;;;;7358551;32;20334;-58
2022/09/09 00:31:47;;;;;;;3.90;0.70;;;14.20;99.90;;;;;;7359667;32;20120;-58
2022/09/09 00:35:56;;;;;;;2.67;0.55;;;14.10;99.90;;;;;;7356409;32;20514;-58
2022/09/09 00:40:02;;;;;;;2.00;0.57;;;14.10;99.90;;;;;;7363883;32;20184;-58
2022/09/09 00:44:26;;;;;;;3.08;0.62;;;14.00;99.90;;;;;;7363841;32;20669;-58
2022/09/09 00:48:36;;;;;;;2.90;0.70;;;14.00;99.90;;;;;;7366022;32;20106;-58
2022/09/09 00:53:06;;;;;;;3.15;0.70;;;14.00;99.90;;;;;;7362548;32;20104;-58
2022/09/09 00:57:29;;;;;;;2.80;0.80;;;14.00;99.90;;;;;;7336353;32;20102;-58
2022/09/09 01:01:31;;;;;;;3.20;0.75;;;14.00;99.90;;;;;;7361372;32;20099;-58
2022/09/09 01:05:33;;;;;;;1.45;1.12;;;14.00;99.90;;;;;;7370115;32;20138;-58
2022/09/09 01:09:59;;;;;;;3.17;0.98;;;14.00;99.90;;;;;;7368682;32;20908;-58
2022/09/09 01:14:36;;;;;;;3.47;0.88;;;14.10;99.90;;;;;;7371114;32;20100;-57
2022/09/09 01:18:45;;;;;;;3.10;0.73;;;14.10;99.90;;;;;;7342812;32;20106;-58
2022/09/09 01:22:57;;;;;;;2.05;1.02;;;14.20;99.90;;;;;;7368896;32;20103;-58
2022/09/09 01:27:02;;;;;;;2.92;1.20;;;14.20;99.90;;;;;;7365474;32;20178;-58
2022/09/09 01:31:06;;;;;;;4.12;1.15;;;14.10;99.90;;;;;;7366046;32;20198;-58
2022/09/09 01:35:17;;;;;;;4.70;1.10;;;14.10;99.90;;;;;;7371355;32;20711;-57
2022/09/09 01:39:20;;;;;;;5.12;1.00;;;14.10;99.90;;;;;;7363445;32;20107;-57
2022/09/09 01:43:23;;;;;;;5.82;1.40;;;14.00;99.90;;;;;;7366846;32;20194;-58
2022/09/09 01:47:25;;;;;;;3.37;0.95;;;14.00;99.90;;;;;;7366931;32;20250;-57
2022/09/09 01:51:27;;;;;;;2.28;0.82;;;14.00;99.90;;;;;;7368492;32;20118;-58
2022/09/09 01:55:30;;;;;;;6.75;1.10;;;13.90;99.90;;;;;;7367426;32;20121;-57
2022/09/09 01:59:40;;;;;;;2.85;1.05;;;13.80;99.90;;;;;;7367598;32;20138;-57
2022/09/09 02:03:47;;;;;;;2.50;1.12;;;13.90;99.90;;;;;;7369000;32;20520;-57
2022/09/09 02:07:53;;;;;;;3.55;1.30;;;13.90;99.90;;;;;;7370570;32;20129;-58
2022/09/09 02:12:13;;;;;;;3.95;1.20;;;14.00;99.90;;;;;;7370538;32;20614;-58
2022/09/09 02:16:29;;;;;;;5.43;1.30;;;14.10;99.90;;;;;;7362709;32;20186;-58
2022/09/09 02:20:33;;;;;;;8.50;1.60;;;14.10;99.90;;;;;;7364979;32;20107;-58
2022/09/09 02:24:40;;;;;;;4.07;1.45;;;14.10;99.90;;;;;;7369051;32;20099;-57
2022/09/09 02:28:42;;;;;;;6.53;1.37;;;14.20;99.90;;;;;;7365011;32;20290;-57
2022/09/09 02:32:45;;;;;;;5.15;1.52;;;14.20;99.90;;;;;;7366836;32;20107;-58
2022/09/09 02:36:49;;;;;;;6.35;1.42;;;14.30;99.90;;;;;;7367472;32;20111;-58
2022/09/09 02:40:51;;;;;;;4.65;1.30;;;14.40;99.90;;;;;;7368551;32;20100;-58
2022/09/09 02:44:53;;;;;;;6.75;1.25;;;14.40;99.90;;;;;;7363862;32;20103;-58
2022/09/09 02:49:09;;;;;;;4.35;1.37;;;14.40;99.90;;;;;;7366510;32;20202;-57
2022/09/09 02:53:23;;;;;;;6.40;1.23;;;14.50;99.90;;;;;;7369977;32;20103;-58
2022/09/09 02:57:30;;;;;;;6.22;2.00;;;14.60;99.90;;;;;;7364823;32;20181;-58
2022/09/09 03:01:32;;;;;;;3.72;1.37;;;14.60;99.90;;;;;;7362678;32;20099;-57
2022/09/09 03:05:34;;;;;;;5.05;1.42;;;14.70;99.90;;;;;;7366582;32;20248;-58
2022/09/09 03:09:35;;;;;;;6.57;1.48;;;14.80;99.90;;;;;;7364215;32;20270;-58
2022/09/09 03:13:37;;;;;;;5.22;1.50;;;14.70;99.90;;;;;;7371799;32;20551;-58
2022/09/09 03:17:39;;;;;;;7.22;1.50;;;14.70;99.90;;;;;;7362649;32;20118;-58
2022/09/09 03:21:41;;;;;;;9.80;1.80;;;14.80;99.90;;;;;;7367338;32;20103;-58
2022/09/09 03:26:03;;;;;;;4.30;1.17;;;14.80;99.90;;;;;;7363082;32;20118;-58
2022/09/09 03:30:05;;;;;;;8.05;1.30;;;14.80;99.90;;;;;;7359697;32;20583;-58
2022/09/09 03:34:07;;;;;;;2.87;0.90;;;14.80;99.90;;;;;;7362121;32;20107;-58
2022/09/09 03:38:09;;;;;;;3.37;0.98;;;14.90;99.90;;;;;;7366518;32;20241;-58
2022/09/09 03:42:18;;;;;;;3.72;1.17;;;14.90;99.90;;;;;;7362790;32;20099;-58
2022/09/09 03:46:22;;;;;;;4.03;1.23;;;14.90;99.90;;;;;;7366765;32;20548;-58
2022/09/09 03:50:23;;;;;;;5.68;1.12;;;14.90;99.90;;;;;;7357308;32;20194;-58
2022/09/09 03:54:25;;;;;;;2.42;0.85;;;14.90;99.90;;;;;;7364366;32;20599;-58
2022/09/09 03:58:27;;;;;;;5.37;1.10;;;14.90;99.90;;;;;;7360815;32;20167;-59
2022/09/09 04:02:29;;;;;;;6.03;1.37;;;14.90;99.90;;;;;;7362233;32;20116;-58
2022/09/09 04:06:31;;;;;;;6.00;1.05;;;14.80;99.90;;;;;;7364494;32;20522;-58
2022/09/09 04:10:33;;;;;;;4.78;1.30;;;14.80;99.90;;;;;;7360431;32;20103;-58
2022/09/09 04:14:35;;;;;;;4.07;1.15;;;14.70;99.90;;;;;;7361831;32;20095;-58
2022/09/09 04:18:36;;;;;;;5.32;1.42;;;14.70;99.90;;;;;;7360480;32;20534;-58
2022/09/09 04:22:39;;;;;;;7.53;1.67;;;14.50;99.90;;;;;;7372792;32;20107;-58
2022/09/09 04:26:41;;;;;;;4.57;1.65;;;14.50;99.90;;;;;;7367552;32;20146;-58
2022/09/09 04:30:44;;;;;;;5.87;1.40;;;14.50;99.90;;;;;;7359625;32;20425;-58
2022/09/09 04:34:47;;;;;;;7.22;1.50;;;14.50;99.90;;;;;;7348303;32;20205;-58
2022/09/09 04:38:49;;;;;;;5.70;1.30;;;14.60;99.90;;;;;;7355008;32;20532;-58
2022/09/09 04:42:51;;;;;;;4.87;1.30;;;14.60;99.90;;;;;;7359823;32;20186;-58
2022/09/09 04:46:52;;;;;;;6.40;1.33;;;14.70;99.90;;;;;;7359799;32;20602;-58
2022/09/09 04:50:59;;;;;;;8.60;1.98;;;14.70;99.90;;;;;;7350409;32;20814;-58
2022/09/09 04:55:01;;;;;;;13.25;5.45;;;14.70;99.90;;;;;;7358742;32;20197;-58
2022/09/09 04:59:04;;;;;;;5.72;2.90;;;14.70;99.90;;;;;;7360785;32;20333;-58
2022/09/09 05:03:06;;;;;;;8.93;1.75;;;14.70;99.90;;;;;;7373567;32;20287;-65
2022/09/09 05:07:08;;;;;;;6.95;1.87;;;14.70;99.90;;;;;;7359482;32;20133;-65
2022/09/09 05:11:24;;;;;;;10.18;5.07;;;14.70;99.90;;;;;;7351015;32;20196;-66
2022/09/09 05:15:25;;;;;;;7.72;3.12;;;14.80;99.90;;;;;;7353016;32;20205;-66
2022/09/09 05:19:27;;;;;;;7.78;2.22;;;14.80;99.90;;;;;;7356257;32;20799;-66
2022/09/09 05:23:29;;;;;;;4.20;1.87;;;14.90;99.90;;;;;;7368601;32;20475;-66
2022/09/09 05:27:31;;;;;;;7.75;1.90;;;14.90;99.90;;;;;;7360674;32;20719;-66
2022/09/09 05:31:32;;;;;;;5.60;1.52;;;14.90;99.90;;;;;;7358479;32;20115;-65
2022/09/09 05:35:34;;;;;;;6.55;2.03;;;15.00;99.90;;;;;;7348101;32;20189;-66
2022/09/09 05:39:36;;;;;;;9.55;3.10;;;15.00;99.90;;;;;;7360907;32;20543;-65
2022/09/09 05:43:39;;;;;;;6.85;2.10;;;15.10;99.90;;;;;;7361332;32;20131;-66
2022/09/09 05:47:40;;;;;;;13.15;7.12;;;15.10;99.90;;;;;;7360437;32;20132;-65
2022/09/09 05:51:42;;;;;;;10.90;3.58;;;15.10;99.90;;;;;;7373816;32;20539;-66
2022/09/09 05:55:45;;;;;;;9.73;2.00;;;15.10;99.90;;;;;;7367471;32;20174;-66
2022/09/09 05:59:46;;;;;;;8.02;1.90;;;15.20;99.90;;;;;;7357615;32;20421;-65
2022/09/09 06:03:50;;;;;;;6.65;1.77;;;15.30;99.90;;;;;;7356678;32;20182;-66
2022/09/09 06:07:53;;;;;;;6.55;1.80;;;15.40;99.90;;;;;;7363685;32;20204;-66
2022/09/09 06:11:54;;;;;;;5.97;1.90;;;15.40;99.90;;;;;;7350274;32;20292;-63
2022/09/09 06:15:56;;;;;;;6.62;1.70;;;15.50;99.90;;;;;;7360610;32;20265;-63
2022/09/09 06:19:59;;;;;;;8.80;1.85;;;15.60;99.90;;;;;;7360352;32;20721;-63
2022/09/09 06:24:01;;;;;;;7.25;1.58;;;15.70;99.90;;;;;;7360743;32;20103;-63
2022/09/09 06:28:02;;;;;;;6.18;1.65;;;15.70;99.90;;;;;;7359259;32;20205;-63
2022/09/09 06:32:05;;;;;;;5.30;1.90;;;15.80;99.90;;;;;;7354455;32;20190;-63
2022/09/09 06:36:20;;;;;;;4.93;1.92;;;15.90;99.90;;;;;;7367094;32;20103;-64
2022/09/09 06:40:22;;;;;;;7.20;2.20;;;15.90;99.90;;;;;;7362539;32;20169;-62
2022/09/09 06:44:26;;;;;;;5.55;1.50;;;16.20;99.90;;;;;;7362346;32;20174;-62
2022/09/09 06:48:31;;;;;;;5.55;1.50;;;16.20;99.90;;;;;;7370106;32;20087;-62
2022/09/09 06:52:33;;;;;;;5.93;1.30;;;16.30;99.90;;;;;;7361336;32;20103;-63
2022/09/09 06:56:37;;;;;;;6.85;1.55;;;16.30;99.90;;;;;;7366815;32;20095;-62
2022/09/09 07:00:39;;;;;;;6.15;1.62;;;16.60;99.90;;;;;;7364195;32;20220;-63
2022/09/09 07:04:40;;;;;;;6.47;1.37;;;16.70;99.90;;;;;;7362095;32;20154;-61
2022/09/09 07:08:42;;;;;;;6.80;1.20;;;16.80;99.90;;;;;;7358339;32;20201;-61
2022/09/09 07:12:56;;;;;;;6.18;1.10;;;16.90;99.90;;;;;;7357803;32;20206;-61
2022/09/09 07:16:58;;;;;;;9.27;1.48;;;16.90;99.90;;;;;;7365975;32;20201;-62
2022/09/09 07:21:01;;;;;;;4.28;1.08;;;17.00;99.90;;;;;;7356975;32;20246;-62
2022/09/09 07:25:04;;;;;;;8.38;1.40;;;17.00;99.90;;;;;;7356352;32;20362;-61
2022/09/09 07:29:07;;;;;;;5.28;1.02;;;17.10;99.90;;;;;;7361596;32;20186;-61
2022/09/09 07:33:09;;;;;;;10.50;1.25;;;17.10;99.90;;;;;;7355801;32;20115;-62
2022/09/09 07:37:13;;;;;;;8.35;1.10;;;17.10;99.90;;;;;;7360590;32;20164;-61
2022/09/09 07:41:27;;;;;;;7.60;0.98;;;17.10;99.90;;;;;;7364098;32;20138;-63
2022/09/09 07:45:30;;;;;;;3.10;0.82;;;17.20;99.90;;;;;;7358510;32;20108;-61
2022/09/09 07:49:32;;;;;;;3.83;0.98;;;17.20;99.90;;;;;;7356526;32;20098;-62
2022/09/09 07:53:36;;;;;;;5.05;0.93;;;17.20;99.90;;;;;;7367261;32;20840;-62
2022/09/09 07:57:38;;;;;;;3.58;0.90;;;17.30;99.90;;;;;;7363345;32;20130;-62
2022/09/09 08:01:48;;;;;;;6.47;1.40;;;17.60;99.90;;;;;;7357211;32;20107;-62
2022/09/09 08:05:50;;;;;;;5.40;1.35;;;17.60;99.90;;;;;;7361479;32;20130;-61
2022/09/09 08:09:51;;;;;;;4.82;1.25;;;17.80;99.90;;;;;;7362429;32;20568;-62
2022/09/09 08:13:54;;;;;;;5.87;0.90;;;17.90;99.90;;;;;;7364725;32;20122;-62
2022/09/09 08:18:03;;;;;;;7.85;1.35;;;17.80;99.90;;;;;;7353189;32;20530;-61
2022/09/09 08:22:07;;;;;;;4.30;0.95;;;17.80;99.90;;;;;;7358377;32;20222;-61
2022/09/09 08:26:17;;;;;;;6.85;1.40;;;17.80;99.90;;;;;;7361564;32;20209;-62
2022/09/09 08:30:18;;;;;;;4.03;0.98;;;17.90;99.90;;;;;;7362492;32;20228;-61
2022/09/09 08:34:21;;;;;;;7.00;1.15;;;18.00;99.90;;;;;;7361087;32;20796;-61
2022/09/09 08:38:23;;;;;;;4.37;1.10;;;18.00;99.90;;;;;;7359419;32;20138;-64
2022/09/09 08:42:38;;;;;;;4.93;1.17;;;18.30;99.90;;;;;;7356998;32;20697;-62
2022/09/09 08:46:57;;;;;;;7.95;1.35;;;18.50;99.90;;;;;;7356881;32;20503;-61
2022/09/09 08:51:01;;;;;;;7.32;1.05;;;18.80;99.90;;;;;;7367796;32;20213;-61
2022/09/09 08:55:24;;;;;;;6.62;0.98;;;18.90;99.90;;;;;;7352802;32;20142;-61
2022/09/09 08:59:28;;;;;;;4.53;1.17;;;18.90;99.90;;;;;;7365107;32;20151;-61
2022/09/09 09:03:52;;;;;;;4.05;1.00;;;18.80;99.90;;;;;;7359958;32;20107;-61
2022/09/09 09:08:16;;;;;;;5.95;1.27;;;18.70;99.90;;;;;;7360216;32;20107;-61
2022/09/09 09:12:21;;;;;;;4.28;1.27;;;18.70;99.90;;;;;;7370333;32;20178;-61
2022/09/09 09:16:52;;;;;;;4.80;1.02;;;18.80;99.90;;;;;;7358274;32;20104;-61
2022/09/09 09:21:03;;;;;;;4.75;0.80;;;18.70;99.90;;;;;;7349279;32;20129;-61
2022/09/09 09:25:17;;;;;;;5.12;1.15;;;18.70;99.90;;;;;;7359408;32;20099;-61
2022/09/09 09:29:21;;;;;;;6.47;0.80;;;18.60;99.90;;;;;;7358240;32;20186;-61
2022/09/09 09:33:40;;;;;;;5.85;0.90;;;18.60;99.90;;;;;;7365654;32;20125;-61
2022/09/09 09:37:43;;;;;;;4.60;1.00;;;18.60;99.90;;;;;;7353059;32;20217;-62
2022/09/09 09:42:14;;;;;;;12.80;1.05;;;18.50;99.90;;;;;;7363951;32;20253;-61
2022/09/09 09:46:23;;;;;;;4.22;1.00;;;18.50;99.90;;;;;;7368725;32;20103;-61
2022/09/09 09:50:26;;;;;;;4.93;1.15;;;18.50;99.90;;;;;;7354628;32;20803;-62
2022/09/09 09:54:30;;;;;;;4.80;1.08;;;18.60;99.90;;;;;;7363050;32;20130;-62
2022/09/09 09:58:38;;;;;;;3.30;1.10;;;19.00;99.90;;;;;;7346924;32;20599;-62
2022/09/09 10:02:43;;;;;;;4.57;0.68;;;19.70;99.90;;;;;;7359895;32;20107;-62
2022/09/09 10:06:45;;;;;;;4.53;0.62;;;20.70;99.90;;;;;;7360604;32;20112;-62
2022/09/09 10:11:16;;;;;;;4.10;0.93;;;20.90;99.90;;;;;;7361897;32;20115;-63
2022/09/09 10:15:30;;;;;;;3.75;0.60;;;20.70;99.90;;;;;;7360614;32;20130;-62
2022/09/09 10:19:35;;;;;;;3.47;0.77;;;20.50;99.90;;;;;;7364357;32;20106;-62
2022/09/09 10:23:53;;;;;;;3.92;0.85;;;20.40;99.90;;;;;;7357705;32;20201;-62
2022/09/09 10:28:18;;;;;;;3.55;0.70;;;20.30;99.90;;;;;;7361428;32;20171;-63
2022/09/09 10:32:38;;;;;;;2.78;0.65;;;20.40;99.90;;;;;;7361160;32;20556;-62
2022/09/09 10:36:46;;;;;;;2.47;0.50;;;20.30;99.90;;;;;;7366828;32;20810;-62
2022/09/09 10:40:55;;;;;;;5.50;0.80;;;20.10;99.90;;;;;;7361466;32;20103;-62
2022/09/09 10:45:33;;;;;;;2.15;0.70;;;20.20;99.90;;;;;;7358642;32;20206;-62
2022/09/09 10:50:22;;;;;;;4.78;0.77;;;20.00;99.90;;;;;;7365486;32;20133;-63
2022/09/09 10:54:39;;;;;;;3.92;0.70;;;19.80;99.90;;;;;;7361402;32;20110;-64
2022/09/09 10:59:04;;;;;;;2.95;0.52;;;19.80;99.90;;;;;;7360302;32;20518;-63
2022/09/09 11:03:12;;;;;;;2.45;0.73;;;20.00;99.90;;;;;;7362044;32;20190;-64
2022/09/09 11:07:30;;;;;;;3.47;0.60;;;20.30;99.90;;;;;;7354405;32;20787;-61
2022/09/09 11:11:41;;;;;;;5.72;0.75;;;20.20;99.90;;;;;;7351302;32;20220;-62
2022/09/09 11:15:49;;;;;;;3.28;0.62;;;20.40;99.90;;;;;;7353277;32;20178;-61
2022/09/09 11:19:51;;;;;;;5.53;0.60;;;20.80;99.90;;;;;;7353261;32;20191;-62
2022/09/09 11:23:57;;;;;;;3.20;0.70;;;21.10;99.90;;;;;;7354021;32;20698;-61
2022/09/09 11:28:17;;;;;;;3.40;0.50;;;21.10;99.90;;;;;;7347806;32;20212;-61
2022/09/09 11:32:39;;;;;;;4.93;0.77;;;20.70;99.90;;;;;;7353975;32;20125;-60
2022/09/09 11:37:11;;;;;;;2.30;0.60;;;20.00;99.90;;;;;;7354737;32;20455;-61
2022/09/09 11:41:15;;;;;;;3.80;0.95;;;19.60;99.90;;;;;;7367362;32;20490;-60
2022/09/09 11:45:27;;;;;;;6.40;0.82;;;19.40;99.90;;;;;;7362271;32;20114;-61
2022/09/09 11:49:42;;;;;;;2.12;0.55;;;19.40;99.90;;;;;;7369035;32;20090;-61
2022/09/09 11:53:53;;;;;;;2.10;0.55;;;19.30;99.90;;;;;;7368384;32;20134;-60
2022/09/09 11:58:10;;;;;;;1.90;0.57;;;19.40;99.90;;;;;;7357920;32;21166;-61
2022/09/09 12:02:16;;;;;;;;;;;19.60;99.90;;;;;;7353438;32;20198;-56
2022/09/09 12:06:26;;;;;;;4.55;0.82;;;19.70;99.90;;;;;;7346891;32;20139;-56
2022/09/09 12:10:38;;;;;;;2.53;0.60;;;19.60;99.90;;;;;;7353439;32;20197;-56
2022/09/09 12:14:55;;;;;;;2.65;0.60;;;19.60;99.90;;;;;;7351919;32;20942;-57
2022/09/09 12:19:05;;;;;;;8.10;1.10;;;19.40;99.90;;;;;;7357824;32;20649;-56
2022/09/09 12:23:19;;;;;;;2.90;0.62;;;19.40;99.90;;;;;;7336642;32;20218;-57
2022/09/09 12:27:28;;;;;;;2.65;0.77;;;19.40;99.90;;;;;;7349911;32;20216;-61
2022/09/09 12:31:53;;;;;;;4.87;0.80;;;19.70;99.90;;;;;;7350142;32;20629;-62
2022/09/09 12:35:57;;;;;;;2.28;0.52;;;20.10;99.90;;;;;;7359387;32;20202;-61
2022/09/09 12:40:02;;;;;;;5.68;0.70;;;20.60;99.90;;;;;;7363133;32;20186;-63
2022/09/09 12:44:07;;;;;;;4.50;0.95;;;20.50;99.90;;;;;;7359394;32;20095;-62
2022/09/09 12:48:15;;;;;;;3.62;0.68;;;20.40;99.90;;;;;;7358885;32;20587;-63
2022/09/09 12:52:26;;;;;;;5.00;0.73;;;20.30;99.90;;;;;;7366564;32;20209;-62
2022/09/09 12:56:31;;;;;;;2.87;0.40;;;20.10;99.90;;;;;;7360262;32;20179;-62
2022/09/09 13:00:34;;;;;;;2.40;0.77;;;20.20;99.90;;;;;;7362749;32;20131;-61
2022/09/09 13:04:35;;;;;;;1.83;0.60;;;20.30;99.90;;;;;;7361425;32;20178;-62
2022/09/09 13:08:37;;;;;;;2.85;0.60;;;20.20;99.90;;;;;;7365731;32;20202;-62
2022/09/09 13:12:41;;;;;;;3.28;0.50;;;19.90;99.90;;;;;;7368481;32;20557;-62
2022/09/09 13:16:54;;;;;;;3.47;0.73;;;19.80;99.90;;;;;;7365853;32;20135;-62
2022/09/09 13:20:57;;;;;;;2.15;0.60;;;19.50;99.90;;;;;;7360326;32;20178;-62
2022/09/09 13:25:02;;;;;;;5.40;0.82;;;19.20;99.90;;;;;;7364769;32;20119;-61
2022/09/09 13:29:18;;;;;;;3.55;0.75;;;18.90;99.90;;;;;;7362488;32;20104;-61
2022/09/09 13:33:23;;;;;;;3.70;0.50;;;18.90;99.90;;;;;;7361954;32;20122;-61
2022/09/09 13:37:37;;;;;;;3.65;0.75;;;19.00;99.90;;;;;;7363778;32;20198;-62
2022/09/09 13:41:46;;;;;;;2.15;0.50;;;18.90;99.90;;;;;;7365807;32;20107;-62
2022/09/09 13:46:02;;;;;;;3.00;1.10;;;19.00;99.90;;;;;;7366407;32;20575;-62
2022/09/09 13:50:23;;;;;;;3.92;0.68;;;19.20;99.90;;;;;;7372532;32;20713;-62
2022/09/09 13:54:24;;;;;;;2.70;0.60;;;19.30;99.90;;;;;;7363366;32;20107;-62
2022/09/09 13:58:26;;;;;;;6.30;1.05;;;19.40;99.90;;;;;;7361631;32;20170;-62
2022/09/09 14:02:28;;;;;;;3.65;0.80;;;19.50;99.90;;;;;;7372215;32;20206;-62
2022/09/09 14:06:30;;;;;;;2.30;0.60;;;19.60;99.90;;;;;;7358749;32;20218;-62
2022/09/09 14:10:31;;;;;;;2.53;0.55;;;19.60;99.90;;;;;;7365316;32;20107;-63
2022/09/09 14:14:33;;;;;;;2.22;0.70;;;19.50;99.90;;;;;;7365255;32;20637;-63
2022/09/09 14:18:35;;;;;;;4.05;0.60;;;19.50;99.90;;;;;;7366202;32;20099;-62
2022/09/09 14:22:39;;;;;;;3.40;0.68;;;19.60;99.90;;;;;;7362087;32;20176;-63
2022/09/09 14:26:40;;;;;;;2.85;0.65;;;19.70;99.90;;;;;;7362826;32;20233;-63
2022/09/09 14:30:44;;;;;;;3.75;0.57;;;19.80;99.90;;;;;;7367441;32;20103;-63
2022/09/09 14:34:46;;;;;;;1.92;0.45;;;19.80;99.90;;;;;;7363407;32;20149;-63
2022/09/09 14:38:48;;;;;;;2.53;0.70;;;19.90;99.90;;;;;;7364304;32;20182;-63
2022/09/09 14:42:49;;;;;;;1.65;0.30;;;19.80;99.90;;;;;;7365308;32;20121;-63
2022/09/09 14:46:51;;;;;;;1.02;0.15;;;19.30;99.90;;;;;;7368670;32;20125;-63
2022/09/09 14:50:52;;;;;;;0.52;0.13;;;18.60;99.90;;;;;;7366441;32;20134;-63
2022/09/09 14:54:54;;;;;;;0.57;0.10;;;18.20;99.90;;;;;;7362633;32;20135;-63
2022/09/09 14:58:57;;;;;;;2.87;0.20;;;17.50;99.90;;;;;;7363287;32;20115;-68
2022/09/09 15:02:59;;;;;;;1.02;0.10;;;17.10;99.90;;;;;;7363108;32;20226;-69
2022/09/09 15:07:01;;;;;;;1.70;0.45;;;16.90;99.90;;;;;;7362805;32;20095;-63
2022/09/09 15:11:04;;;;;;;4.35;0.50;;;16.90;99.90;;;;;;7366666;32;20185;-69
2022/09/09 15:15:06;;;;;;;2.15;0.35;;;16.70;99.90;;;;;;7348531;32;20179;-66
2022/09/09 15:19:09;;;;;;;1.70;0.28;;;16.50;99.90;;;;;;7361833;32;20201;-67
2022/09/09 15:23:10;;;;;;;1.20;0.30;;;16.30;99.90;;;;;;7363706;32;20182;-68
2022/09/09 15:27:14;;;;;;;3.55;0.43;;;16.20;99.90;;;;;;7360832;32;20472;-67
2022/09/09 15:31:21;;;;;;;1.95;0.70;;;16.10;99.90;;;;;;7359456;32;20220;-68
2022/09/09 15:35:23;;;;;;;3.62;0.60;;;16.00;99.90;;;;;;7354244;32;20546;-69
2022/09/09 15:39:24;;;;;;;0.82;0.40;;;16.10;99.90;;;;;;7357794;32;20545;-64
2022/09/09 15:43:26;;;;;;;1.73;0.35;;;16.10;99.90;;;;;;7362559;32;20103;-64
2022/09/09 15:47:28;;;;;;;1.23;0.40;;;16.40;99.90;;;;;;7362672;32;20163;-64
2022/09/09 15:51:30;;;;;;;1.52;0.50;;;16.60;99.90;;;;;;7364385;32;20528;-65
2022/09/09 15:55:45;;;;;;;3.05;0.70;;;16.70;99.90;;;;;;7367064;32;20096;-65
2022/09/09 15:59:48;;;;;;;3.00;0.90;;;17.00;99.90;;;;;;7365094;32;20126;-66
2022/09/09 16:03:52;;;;;;;3.25;0.62;;;17.10;99.90;;;;;;7361402;32;20152;-65
2022/09/09 16:07:54;;;;;;;2.95;0.60;;;17.20;99.90;;;;;;7361236;32;20127;-64
2022/09/09 16:11:58;;;;;;;2.95;0.60;;;17.20;99.90;;;;;;7360581;32;20122;-64
2022/09/09 16:16:01;;;;;;;2.70;0.62;;;17.20;99.90;;;;;;7361325;32;20100;-64
2022/09/09 16:20:06;;;;;;;3.58;0.90;;;17.20;99.90;;;;;;7358835;32;20193;-64
2022/09/09 16:24:10;;;;;;;3.35;0.85;;;17.10;99.90;;;;;;7360444;32;20229;-65
2022/09/09 16:28:12;;;;;;;2.10;0.70;;;17.10;99.90;;;;;;7363316;32;20099;-65
2022/09/09 16:32:14;;;;;;;3.35;0.93;;;17.10;99.90;;;;;;7365489;32;20107;-65
2022/09/09 16:36:36;;;;;;;2.87;0.80;;;17.10;99.90;;;;;;7362664;32;20107;-65
2022/09/09 16:40:41;;;;;;;2.40;0.60;;;17.10;99.90;;;;;;7357842;32;20205;-65
2022/09/09 16:44:42;;;;;;;2.12;0.68;;;16.90;99.90;;;;;;7361740;32;20577;-65
2022/09/09 16:48:45;;;;;;;5.60;0.90;;;16.90;99.90;;;;;;7366333;32;20107;-65
2022/09/09 16:52:47;;;;;;;2.95;0.88;;;16.70;99.90;;;;;;7358990;32;20113;-65
2022/09/09 16:56:49;;;;;;;3.83;0.80;;;16.70;99.90;;;;;;7361597;32;20222;-65
2022/09/09 17:00:51;;;;;;;3.92;1.55;;;16.60;99.90;;;;;;7365560;32;20107;-67
2022/09/09 17:04:52;;;;;;;2.70;0.80;;;16.50;99.90;;;;;;7365480;32;20149;-66
2022/09/09 17:08:59;;;;;;;5.50;1.17;;;16.60;99.90;;;;;;7364122;32;20546;-64
2022/09/09 17:13:01;;;;;;;2.33;0.90;;;16.60;99.90;;;;;;7359989;32;20118;-65
2022/09/09 17:17:04;;;;;;;5.65;1.20;;;16.60;99.90;;;;;;7357943;32;20107;-63
2022/09/09 17:21:27;;;;;;;5.70;0.98;;;16.50;99.90;;;;;;7361549;32;20091;-64
2022/09/09 17:25:29;;;;;;;6.50;1.15;;;16.50;99.90;;;;;;7370308;32;20562;-66
2022/09/09 17:29:30;;;;;;;4.28;0.98;;;16.40;99.90;;;;;;7357774;32;20122;-65
2022/09/09 17:33:37;;;;;;;5.22;1.00;;;16.40;99.90;;;;;;7360591;32;20148;-65
2022/09/09 17:37:39;;;;;;;;;;;16.30;99.90;;;;;;7362394;32;20123;-65
2022/09/09 17:41:41;;;;;;;3.92;1.08;;;16.20;99.90;;;;;;7362510;32;20035;-64
2022/09/09 17:45:44;;;;;;;4.18;1.20;;;16.20;99.90;;;;;;7362367;32;20143;-65
2022/09/09 17:49:46;;;;;;;5.60;1.58;;;16.20;99.90;;;;;;7364014;32;20096;-63
2022/09/09 17:53:50;;;;;;;4.93;1.73;;;16.10;99.90;;;;;;7372714;32;20107;-63
2022/09/09 17:57:51;;;;;;;3.60;1.17;;;16.10;99.90;;;;;;7371119;32;20205;-64
2022/09/09 18:01:54;;;;;;;3.95;1.48;;;16.10;99.90;;;;;;7363329;32;20122;-62
2022/09/09 18:06:04;;;;;;;4.57;1.30;;;16.10;99.90;;;;;;7355928;32;20209;-64
2022/09/09 18:10:06;;;;;;;2.95;1.20;;;16.10;99.90;;;;;;7359302;32;20125;-66
2022/09/09 18:14:11;;;;;;;2.65;1.17;;;16.00;99.90;;;;;;7354908;32;20213;-59
2022/09/09 18:18:13;;;;;;;4.03;1.23;;;16.10;99.90;;;;;;7361013;32;20110;-60
2022/09/09 18:22:14;;;;;;;1.45;0.80;;;16.10;99.90;;;;;;7364046;32;20108;-60
2022/09/09 18:26:26;;;;;;;3.70;0.85;;;16.00;99.90;;;;;;7364107;32;20138;-61
2022/09/09 18:30:29;;;;;;;3.35;1.00;;;16.00;99.90;;;;;;7363781;32;20714;-59
2022/09/09 18:34:31;;;;;;;2.78;1.10;;;16.00;99.90;;;;;;7362433;32;20198;-60
2022/09/09 18:38:34;;;;;;;4.10;1.02;;;16.10;99.90;;;;;;7366082;32;20126;-61
2022/09/09 18:42:36;;;;;;;4.57;0.80;;;16.10;99.90;;;;;;7363046;32;20810;-59
2022/09/09 18:46:38;;;;;;;2.53;0.77;;;16.10;99.90;;;;;;7365000;32;20098;-59
2022/09/09 18:50:40;;;;;;;2.50;0.85;;;16.10;99.90;;;;;;7368804;32;20431;-59
2022/09/09 18:54:44;;;;;;;3.30;1.20;;;16.10;99.90;;;;;;7364518;32;20103;-61
2022/09/09 18:58:51;;;;;;;5.05;1.00;;;16.10;99.90;;;;;;7368162;32;20149;-61
2022/09/09 19:02:53;;;;;;;1.90;0.80;;;16.10;99.90;;;;;;7367801;32;20137;-59
2022/09/09 19:06:58;;;;;;;7.25;1.70;;;16.00;99.90;;;;;;7359906;32;20129;-59
2022/09/09 19:11:04;;;;;;;3.70;1.60;;;16.00;99.90;;;;;;7361024;32;20119;-60
2022/09/09 19:15:06;;;;;;;2.87;1.00;;;15.90;99.90;;;;;;7363977;32;20788;-59
2022/09/09 19:19:13;;;;;;;3.37;1.10;;;15.80;99.90;;;;;;7373706;32;20179;-61
2022/09/09 19:23:14;;;;;;;4.18;1.10;;;15.70;99.90;;;;;;7367868;32;20123;-59
2022/09/09 19:27:16;;;;;;;4.93;1.00;;;15.80;99.90;;;;;;7366946;32;20103;-59
2022/09/09 19:31:19;;;;;;;5.50;1.65;;;15.80;99.90;;;;;;7362151;32;20221;-60
2022/09/09 19:35:21;;;;;;;4.80;1.33;;;15.70;99.90;;;;;;7359303;32;20240;-60
2022/09/09 19:39:23;;;;;;;6.07;1.58;;;15.70;99.90;;;;;;7362468;32;20146;-59
2022/09/09 19:43:25;;;;;;;2.58;1.02;;;15.70;99.90;;;;;;7359912;32;20099;-58
2022/09/09 19:47:27;;;;;;;5.62;1.25;;;15.80;99.90;;;;;;7350856;32;20103;-59
2022/09/09 19:51:30;;;;;;;4.82;1.48;;;15.80;99.90;;;;;;7355648;32;20259;-60
2022/09/09 19:55:31;;;;;;;4.65;1.20;;;15.80;99.90;;;;;;7355513;32;20761;-60
2022/09/09 19:59:34;;;;;;;2.97;1.27;;;15.70;99.90;;;;;;7353911;32;20835;-59
2022/09/09 20:03:37;;;;;;;3.80;1.40;;;15.90;99.90;;;;;;7360154;32;20784;-59
2022/09/09 20:07:39;;;;;;;6.50;1.52;;;15.80;99.90;;;;;;7355995;32;20800;-59
2022/09/09 20:11:42;;;;;;;6.15;1.30;;;15.80;99.90;;;;;;7358869;32;20143;-59
2022/09/09 20:15:44;;;;;;;4.12;1.65;;;15.80;99.90;;;;;;7365818;32;20459;-59
2022/09/09 20:19:46;;;;;;;4.53;1.00;;;15.80;99.90;;;;;;7368029;32;20103;-59
2022/09/09 20:23:48;;;;;;;3.05;1.40;;;15.90;99.90;;;;;;7369371;32;20537;-59
2022/09/09 20:27:50;;;;;;;3.60;1.25;;;15.90;99.90;;;;;;7359844;32;20126;-59
2022/09/09 20:31:52;;;;;;;4.25;1.60;;;15.90;99.90;;;;;;7361678;32;21001;-59
2022/09/09 20:35:53;;;;;;;2.45;1.08;;;15.90;99.90;;;;;;7363976;32;20512;-59
2022/09/09 20:39:55;;;;;;;6.25;1.55;;;15.90;99.90;;;;;;7366927;32;20102;-59
2022/09/09 20:44:02;;;;;;;2.40;1.10;;;15.90;99.90;;;;;;7368672;32;20118;-59
2022/09/09 20:48:05;;;;;;;6.80;1.48;;;15.90;99.90;;;;;;7366521;32;20121;-59
2022/09/09 20:52:09;;;;;;;3.12;1.30;;;15.80;99.90;;;;;;7370957;32;20098;-59
2022/09/09 20:56:12;;;;;;;3.03;1.12;;;15.80;99.90;;;;;;7377258;32;20095;-60
2022/09/09 21:00:14;;;;;;;2.90;0.98;;;15.80;99.90;;;;;;7364661;32;20095;-59
2022/09/09 21:04:17;;;;;;;4.93;1.40;;;15.80;99.90;;;;;;7362682;32;20557;-59
2022/09/09 21:08:19;;;;;;;3.92;1.37;;;15.80;99.90;;;;;;7365018;32;20240;-59
2022/09/09 21:12:21;;;;;;;3.45;1.30;;;15.80;99.90;;;;;;7368043;32;20103;-59
2022/09/09 21:16:23;;;;;;;4.12;1.25;;;15.90;99.90;;;;;;7357004;32;20208;-59
2022/09/09 21:20:24;;;;;;;4.12;1.30;;;15.90;99.90;;;;;;7359884;32;20119;-59
2022/09/09 21:24:26;;;;;;;4.32;1.50;;;15.90;99.90;;;;;;7365976;32;20114;-59